AirNav   Air Wisconsin pilot careers
 
 870 users online  

4KS5 Maize Airport
Wichita (Maize), Kansas, USA

GOING TO WICHITA (MAIZE)?


FAA INFORMATION EFFECTIVE 11 OCTOBER 2018

Location

FAA Identifier: 4KS5
Lat/Long: 37-45-56.0430N / 097-26-09.1630W
37-45.934050N / 097-26.152717W
37.7655675 / -97.4358786
(estimated)
Elevation: 1336 ft. / 407 m (estimated)
Variation: 07E (1985)
From city: 2 miles SE of central business district of the associated city
Time zone: UTC -5 (UTC -6 during Standard Time)
Zip code: 67205

Airport Operations

Airport use: Private use. Permission required prior to landing
Activation date: 04/1961
Control tower: no
ARTCC: KANSAS CITY CENTER
FSS: WICHITA FLIGHT SERVICE STATION
Attendance: UNATNDD
Wind indicator: yes
Segmented circle: no

Airport Communications

WX ASOS at ICT (7 nm S): PHONE 316-945-8022
WX ASOS at AAO (10 nm E): 134.025 (316-636-2541)
WX AWOS-3PT at BEC (11 nm E): 119.45 (316-515-7116)
WX AWOS-3 at 1K1 (15 nm E): 118.3 (316-530-6004)
WX AWOS-3PT at 3AU (18 nm E): 124.175 (316-733-6696)
WX AWOS-3PT at EWK (19 nm NE): 123.875 (316-283-8789)

Nearby radio navigation aids

VOR radial/distance  VOR name  Freq  Var
ICTr073/7.1WICHITA VORTAC113.8007E
HUTr116/27.4HUTCHINSON VOR/DME116.8004E

 
NDB name  Hdg/Dist  Freq  Var  ID
PICHE001/11.333204EIC .. -.-.
NEWTON197/19.528106EEWK . .-- -.-

Airport Services

Parking: tiedowns
Airframe service: NONE
Powerplant service: NONE
Bottled oxygen: NONE
Bulk oxygen: NONE

Runway Information

Runway 17/35

Dimensions: 2100 x 70 ft. / 640 x 21 m
Surface: turf, in poor condition
TURF-GRASS NOT MAINTAINED
RUNWAY 17  RUNWAY 35
Traffic pattern: leftleft
Markings: nonenone
Runway end identifier lights: nono
Obstructions: 15 ft. road, 50 ft. from runway, 3:1 slope to clear22 ft. road, 300 ft. from runway, 13:1 slope to clear
CONC RUBBLE AT AER 35.

Airport Ownership and Management from official FAA records

Ownership: Privately-owned
Owner: G. V. RUBALCABA
8001 W 45TH ST. NORTH
WICHITA, KS 67205
Phone 316-733-2851
Manager: G. V. RUBALCABA
745 ANDOVER RD
ANDOVER, KS 67002
Phone 316-733-2851
PHONE AT ARPT 316-722-2690.

Airport Operational Statistics

Aircraft based on the field: 12
Single engine airplanes: 11
Helicopters: 1
    
Aircraft operations: avg 44/week *
78% local general aviation
22% transient general aviation
* for 12-month period ending 29 April 2008

Additional Remarks

DENSE TREES 70 FT LEFT AND RIGHT OF RUNWAY CNTRLN
CONCRETE RUBBLE & DEBRIS DUMPING ALONG RY ENDS & EDGES CAN CHANGE RY USABLE LENGTH & WIDTH.

Instrument Procedures

There are no published instrument procedures at 4KS5.

Some nearby airports with instrument procedures:

KICT - Wichita Dwight D Eisenhower National Airport (7 nm S)
KAAO - Colonel James Jabara Airport (10 nm E)
KCEA - Cessna Aircraft Field Airport (11 nm SE)
KBEC - Beech Factory Airport (11 nm E)
KIAB - Mc Connell Air Force Base (12 nm SE)
1K1 - Lloyd Stearman Field Airport (15 nm E)
3AU - Augusta Municipal Airport (18 nm E)
KEWK - Newton City/County Airport (19 nm NE)
 
Loc | Ops | Rwys | IFR | FBO | Links
Com | Nav | Svcs | Stats | Notes

Kansas City Aviation Department
 
Area around 4KS5 (Maize Airport)
 
Road maps at: MapQuest Bing Google
 
Aerial photo
WARNING: Photo may not be current or correct
Aerial photo of 4KS5 (Maize Airport)
Do you have a better or more recent aerial photo of Maize Airport that you would like to share? If so, please send us your photo.

 
Sectional chart

 
Airport distance calculator
Flying to Maize Airport? Find the distance to fly.

From to 4KS5

Sunrise and sunset
Times for 20-Oct-2018
 Local
(UTC-5)
 Zulu
(UTC)
Morning civil twilight07:1712:17
Sunrise07:4412:44
Sunset18:4523:45
Evening civil twilight19:1200:12

Current date and time
Zulu (UTC)  20-Oct-2018 22:45:26
Local (UTC-5)  20-Oct-2018 17:45:26
 
METAR
KICT 
7nm S 
202153Z 02012KT 10SM CLR 21/02 A3030 RMK AO2 SLP259 T02060022 $
KAAO 
10nm E 
202154Z AUTO 35011KT 10SM CLR 20/03 A3031 RMK AO2 SLP262 T02000028
KBEC 
11nm E 
202235Z AUTO 36009KT 10SM CLR 19/01 A3030 RMK AO2 T01900013
KIAB 
12nm SE 
202156Z AUTO 36013KT 10SM CLR 20/02 A3030 RMK AO2 SLP261 T01970021 $
K1K1 
15nm E 
202235Z AUTO 34008KT 300V360 10SM CLR 19/00 A3031 RMK AO2 T01850002
K3AU 
18nm E 
202235Z AUTO 36009G15KT 10SM CLR 18/01 A3031 RMK AO2
KEWK 
18nm NE 
202156Z AUTO 36013G17KT 10SM CLR 18/02 A3032 RMK AO2 SLP266 T01830022
TAF
KICT 
7nm S 
201720Z 2018/2118 36010KT P6SM SKC FM210100 04006KT P6SM SKC FM211100 16005KT P6SM SKC FM211600 19012KT P6SM SKC
KIAB 
12nm SE 
201800Z 2018/2124 34010G15KT 9999 SKC QNH3032INS BECMG 2023/2024 VRB06KT 9999 SKC QNH3030INS BECMG 2114/2115 16012KT 9999 SKC QNH3020INS TX21/2021Z TN04/2112Z
NOTAMs
Click for the latest NOTAMs
NOTAMs are issued by the DoD/FAA and will open in a separate window not controlled by AirNav.

 

 
 

Would you like to see your business listed on this page?

 If your business provides an interesting product or service to pilots, flight crews, aircraft, or users of the Maize Airport, you should consider listing it here.  To start the listing process, click on the button below
 
Add a business
 

Other Pages about Maize Airport

Update a link
 
Copyright © AirNav, LLC. All rights reserved. Privacy Policy  Contact